Time,TemperatureF,DewpointF,PressureIn,WindDirection,WindDirectionDegrees,WindSpeedMPH,WindSpeedGustMPH,Humidity,HourlyPrecipIn,Conditions,Clouds,dailyrainin,SoftwareType,DateUTC
2013-01-03 00:03:00,38.1,32.0,30.19,North,1,0.0,1.0,77,0.00,,,0.00,weatherlink.com 1.10,2013-01-03 05:03:00,
2013-01-03 00:18:00,38.0,32.0,30.18,North,360,0.0,0.0,78,0.00,,,0.00,weatherlink.com 1.10,2013-01-03 05:18:00,
2013-01-03 00:33:00,37.9,32.0,30.17,North,360,1.0,1.0,78,0.00,,,0.00,weatherlink.com 1.10,2013-01-03 05:33:00,
2013-01-03 00:48:00,37.9,32.0,30.18,North,360,1.0,1.0,78,0.00,,,0.00,weatherlink.com 1.10,2013-01-03 05:48:00,
2013-01-03 01:03:00,37.8,32.0,30.18,North,351,0.0,2.0,78,0.00,,,0.00,weatherlink.com 1.10,2013-01-03 06:03:00,
2013-01-03 01:18:00,37.7,31.0,30.18,ESE,103,0.0,2.0,78,0.00,,,0.00,weatherlink.com 1.10,2013-01-03 06:18:00,
2013-01-03 01:33:00,37.7,32.0,30.18,ESE,103,0.0,0.0,79,0.00,,,0.00,weatherlink.com 1.10,2013-01-03 06:33:00,
2013-01-03 01:48:00,37.6,32.0,30.18,ESE,103,0.0,0.0,79,0.00,,,0.00,weatherlink.com 1.10,2013-01-03 06:48:00,
2013-01-03 02:03:00,37.7,31.0,30.17,SE,139,0.0,3.0,77,0.00,,,0.00,weatherlink.com 1.10,2013-01-03 07:03:00,
2013-01-03 02:18:00,37.7,31.0,30.18,ESE,117,0.0,1.0,77,0.00,,,0.00,weatherlink.com 1.10,2013-01-03 07:18:00,
2013-01-03 02:33:00,37.6,31.0,30.19,WNW,300,0.0,1.0,77,0.00,,,0.00,weatherlink.com 1.10,2013-01-03 07:33:00,
2013-01-03 02:48:00,37.6,31.0,30.19,WNW,300,0.0,1.0,78,0.00,,,0.00,weatherlink.com 1.10,2013-01-03 07:48:00,
2013-01-03 03:03:00,37.5,32.0,30.19,WNW,300,0.0,1.0,79,0.00,,,0.00,weatherlink.com 1.10,2013-01-03 08:03:00,
2013-01-03 03:18:00,37.4,31.0,30.19,NW,307,0.0,1.0,79,0.00,,,0.00,weatherlink.com 1.10,2013-01-03 08:18:00,
2013-01-03 03:33:00,37.3,32.0,30.20,NW,308,0.0,1.0,80,0.00,,,0.00,weatherlink.com 1.10,2013-01-03 08:33:00,
2013-01-03 03:48:00,37.2,32.0,30.19,NW,308,0.0,0.0,80,0.00,,,0.00,weatherlink.com 1.10,2013-01-03 08:48:00,
2013-01-03 04:03:00,37.2,32.0,30.18,NW,308,0.0,0.0,80,0.00,,,0.00,weatherlink.com 1.10,2013-01-03 09:03:00,
2013-01-03 04:18:00,37.3,32.0,30.18,SE,139,0.0,1.0,80,0.00,,,0.00,weatherlink.com 1.10,2013-01-03 09:18:00,
2013-01-03 04:33:00,37.3,32.0,30.18,SE,145,0.0,1.0,81,0.00,,,0.00,weatherlink.com 1.10,2013-01-03 09:33:00,
2013-01-03 04:48:00,37.2,32.0,30.17,SE,145,0.0,0.0,80,0.00,,,0.00,weatherlink.com 1.10,2013-01-03 09:48:00,
2013-01-03 05:03:00,37.1,32.0,30.18,SE,145,0.0,0.0,81,0.00,,,0.00,weatherlink.com 1.10,2013-01-03 10:03:00,
2013-01-03 05:18:00,37.1,32.0,30.18,SE,145,0.0,0.0,81,0.00,,,0.00,weatherlink.com 1.10,2013-01-03 10:18:00,
2013-01-03 05:33:00,37.0,32.0,30.18,NNW,332,0.0,2.0,82,0.00,,,0.00,weatherlink.com 1.10,2013-01-03 10:33:00,
2013-01-03 05:48:00,36.9,32.0,30.19,NNW,330,0.0,1.0,82,0.00,,,0.00,weatherlink.com 1.10,2013-01-03 10:48:00,
2013-01-03 06:03:00,36.9,32.0,30.20,NNW,330,0.0,1.0,83,0.00,,,0.00,weatherlink.com 1.10,2013-01-03 11:03:00,
2013-01-03 06:18:00,36.8,32.0,30.20,NNW,330,0.0,0.0,83,0.00,,,0.00,weatherlink.com 1.10,2013-01-03 11:18:00,
2013-01-03 06:33:00,36.7,33.0,30.21,NNW,330,1.0,1.0,85,0.00,,,0.00,weatherlink.com 1.10,2013-01-03 11:33:00,
2013-01-03 06:49:00,36.3,33.0,30.21,NNW,338,0.0,2.0,87,0.00,,,0.00,weatherlink.com 1.10,2013-01-03 11:49:00,
2013-01-03 07:04:00,35.9,33.0,30.22,NNW,328,1.0,2.0,89,0.00,,,0.00,weatherlink.com 1.10,2013-01-03 12:04:00,
2013-01-03 07:19:00,35.6,33.0,30.22,NNW,328,0.0,1.0,91,0.00,,,0.00,weatherlink.com 1.10,2013-01-03 12:19:00,
2013-01-03 07:34:00,35.5,33.0,30.22,North,351,0.0,1.0,92,0.00,,,0.00,weatherlink.com 1.10,2013-01-03 12:34:00,
2013-01-03 07:49:00,35.4,33.0,30.22,North,351,0.0,0.0,92,0.00,,,0.00,weatherlink.com 1.10,2013-01-03 12:49:00,
2013-01-03 08:04:00,35.4,33.0,30.22,North,351,0.0,0.0,92,0.00,,,0.00,weatherlink.com 1.10,2013-01-03 13:04:00,
2013-01-03 08:19:00,35.5,34.0,30.23,North,351,0.0,0.0,93,0.00,,,0.00,weatherlink.com 1.10,2013-01-03 13:19:00,
2013-01-03 08:34:00,35.5,34.0,30.22,North,352,0.0,0.0,93,0.00,,,0.00,weatherlink.com 1.10,2013-01-03 13:34:00,
2013-01-03 08:49:00,35.6,34.0,30.23,North,352,0.0,0.0,93,0.00,,,0.00,weatherlink.com 1.10,2013-01-03 13:49:00,
2013-01-03 09:04:00,35.6,34.0,30.23,North,352,0.0,0.0,93,0.00,,,0.00,weatherlink.com 1.10,2013-01-03 14:04:00,
2013-01-03 09:19:00,35.7,34.0,30.24,NNW,343,0.0,0.0,93,0.00,,,0.00,weatherlink.com 1.10,2013-01-03 14:19:00,
2013-01-03 09:34:00,35.8,34.0,30.25,NNW,343,0.0,0.0,94,0.00,,,0.00,weatherlink.com 1.10,2013-01-03 14:34:00,
2013-01-03 09:49:00,35.9,34.0,30.25,NNW,343,0.0,1.0,93,0.00,,,0.00,weatherlink.com 1.10,2013-01-03 14:49:00,
2013-01-03 10:04:00,36.1,34.0,30.25,North,350,0.0,0.0,93,0.00,,,0.00,weatherlink.com 1.10,2013-01-03 15:04:00,
2013-01-03 10:19:00,36.4,35.0,30.25,North,354,0.0,0.0,93,0.00,,,0.00,weatherlink.com 1.10,2013-01-03 15:19:00,
2013-01-03 10:34:00,36.6,35.0,30.25,SE,133,1.0,1.0,93,0.00,,,0.00,weatherlink.com 1.10,2013-01-03 15:34:00,
2013-01-03 10:49:00,36.8,35.0,30.24,East,98,0.0,1.0,92,0.00,,,0.00,weatherlink.com 1.10,2013-01-03 15:49:00,
2013-01-03 11:04:00,37.1,35.0,30.24,SSE,153,0.0,1.0,91,0.00,,,0.00,weatherlink.com 1.10,2013-01-03 16:04:00,
2013-01-03 11:19:00,37.5,35.0,30.24,SSE,150,0.0,1.0,90,0.00,,,0.00,weatherlink.com 1.10,2013-01-03 16:19:00,
2013-01-03 11:34:00,37.9,35.0,30.23,SE,142,0.0,1.0,89,0.00,,,0.00,weatherlink.com 1.10,2013-01-03 16:34:00,
2013-01-03 11:49:00,38.4,35.0,30.23,SE,132,1.0,2.0,87,0.00,,,0.00,weatherlink.com 1.10,2013-01-03 16:49:00,
2013-01-03 12:04:00,38.4,35.0,30.22,ESE,116,0.0,1.0,86,0.00,,,0.00,weatherlink.com 1.10,2013-01-03 17:04:00,
2013-01-03 12:19:00,38.5,35.0,30.21,NNW,332,0.0,3.0,87,0.00,,,0.00,weatherlink.com 1.10,2013-01-03 17:19:00,
2013-01-03 12:34:00,38.6,35.0,30.21,West,281,0.0,1.0,87,0.00,,,0.00,weatherlink.com 1.10,2013-01-03 17:34:00,
2013-01-03 12:49:00,39.0,36.0,30.21,WSW,253,0.0,2.0,87,0.00,,,0.00,weatherlink.com 1.10,2013-01-03 17:49:00,
2013-01-03 13:04:00,39.4,36.0,30.20,SW,221,1.0,1.0,86,0.00,,,0.00,weatherlink.com 1.10,2013-01-03 18:04:00,
2013-01-03 13:19:00,39.6,36.0,30.20,East,98,0.0,2.0,85,0.00,,,0.00,weatherlink.com 1.10,2013-01-03 18:19:00,
2013-01-03 13:34:00,40.3,36.0,30.20,SSE,160,3.0,4.0,85,0.00,,,0.00,weatherlink.com 1.10,2013-01-03 18:34:00,
2013-01-03 13:49:00,41.2,36.0,30.20,SSW,193,0.0,1.0,82,0.00,,,0.00,weatherlink.com 1.10,2013-01-03 18:49:00,
2013-01-03 14:04:00,42.9,37.0,30.19,East,94,0.0,2.0,79,0.00,,,0.00,weatherlink.com 1.10,2013-01-03 19:04:00,
2013-01-03 15:04:00,43.0,36.0,30.20,SSE,163,0.0,3.0,77,0.00,,,0.00,weatherlink.com 1.10,2013-01-03 20:04:00,
2013-01-03 15:19:00,43.3,36.0,30.20,South,180,0.0,2.0,76,0.00,,,0.00,weatherlink.com 1.10,2013-01-03 20:19:00,
2013-01-03 15:34:00,43.2,36.0,30.20,SSE,156,0.0,2.0,75,0.00,,,0.00,weatherlink.com 1.10,2013-01-03 20:34:00,
2013-01-03 15:49:00,42.9,36.0,30.21,SSW,194,0.0,1.0,75,0.00,,,0.00,weatherlink.com 1.10,2013-01-03 20:49:00,
2013-01-03 16:04:00,42.9,36.0,30.21,South,181,0.0,2.0,75,0.00,,,0.00,weatherlink.com 1.10,2013-01-03 21:04:00,
2013-01-03 16:19:00,42.5,35.0,30.22,South,182,0.0,0.0,76,0.00,,,0.00,weatherlink.com 1.10,2013-01-03 21:19:00,
2013-01-03 16:34:00,42.2,32.0,30.23,WNW,294,0.0,3.0,67,0.00,,,0.00,weatherlink.com 1.10,2013-01-03 21:34:00,
2013-01-03 16:49:00,42.0,34.0,30.24,WNW,294,0.0,1.0,74,0.00,,,0.00,weatherlink.com 1.10,2013-01-03 21:49:00,
2013-01-03 17:04:00,41.0,33.0,30.24,WNW,298,0.0,2.0,74,0.00,,,0.00,weatherlink.com 1.10,2013-01-03 22:04:00,
2013-01-03 17:19:00,40.0,28.0,30.25,North,350,1.0,1.0,63,0.00,,,0.00,weatherlink.com 1.10,2013-01-03 22:19:00,
2013-01-03 17:34:00,39.5,26.0,30.25,NNW,339,2.0,4.0,60,0.00,,,0.00,weatherlink.com 1.10,2013-01-03 22:34:00,
2013-01-03 17:49:00,38.9,26.0,30.25,NW,319,1.0,4.0,61,0.00,,,0.00,weatherlink.com 1.10,2013-01-03 22:49:00,
2013-01-03 18:04:00,38.7,26.0,30.26,NNE,16,5.0,7.0,60,0.00,,,0.00,weatherlink.com 1.10,2013-01-03 23:04:00,
2013-01-03 18:20:00,38.7,26.0,30.27,NNW,347,3.0,6.0,60,0.00,,,0.00,weatherlink.com 1.10,2013-01-03 23:20:00,
2013-01-03 18:35:00,38.1,26.0,30.27,NNE,27,2.0,4.0,61,0.00,,,0.00,weatherlink.com 1.10,2013-01-03 23:35:00,
2013-01-03 18:50:00,37.2,25.0,30.28,NNW,335,0.0,1.0,61,0.00,,,0.00,weatherlink.com 1.10,2013-01-03 23:50:00,
2013-01-03 19:05:00,36.4,25.0,30.28,NNW,336,0.0,1.0,63,0.00,,,0.00,weatherlink.com 1.10,2013-01-04 00:05:00,
2013-01-03 19:20:00,35.3,25.0,30.29,WNW,291,0.0,3.0,67,0.00,,,0.00,weatherlink.com 1.10,2013-01-04 00:20:00,
2013-01-03 19:35:00,35.5,25.0,30.30,NW,326,0.0,2.0,65,0.00,,,0.00,weatherlink.com 1.10,2013-01-04 00:35:00,
2013-01-03 19:50:00,33.7,26.0,30.30,NW,326,0.0,0.0,72,0.00,,,0.00,weatherlink.com 1.10,2013-01-04 00:50:00,
2013-01-03 20:05:00,31.7,25.0,30.30,NW,326,0.0,1.0,75,0.00,,,0.00,weatherlink.com 1.10,2013-01-04 01:05:00,
2013-01-03 20:20:00,30.5,24.0,30.30,NW,326,0.0,0.0,77,0.00,,,0.00,weatherlink.com 1.10,2013-01-04 01:20:00,
2013-01-03 20:35:00,30.6,25.0,30.30,NW,326,0.0,0.0,79,0.00,,,0.00,weatherlink.com 1.10,2013-01-04 01:35:00,
2013-01-03 20:50:00,30.2,25.0,30.30,NW,326,0.0,1.0,80,0.00,,,0.00,weatherlink.com 1.10,2013-01-04 01:50:00,
2013-01-03 21:05:00,28.9,24.0,30.30,NW,326,0.0,0.0,83,0.00,,,0.00,weatherlink.com 1.10,2013-01-04 02:05:00,
2013-01-03 21:20:00,28.6,24.0,30.30,NW,326,0.0,0.0,84,0.00,,,0.00,weatherlink.com 1.10,2013-01-04 02:20:00,
2013-01-03 21:35:00,28.0,24.0,30.30,NW,326,0.0,0.0,84,0.00,,,0.00,weatherlink.com 1.10,2013-01-04 02:35:00,
2013-01-03 21:50:00,28.0,24.0,30.31,NW,326,0.0,0.0,85,0.00,,,0.00,weatherlink.com 1.10,2013-01-04 02:50:00,
2013-01-03 22:05:00,27.4,24.0,30.32,NW,326,0.0,0.0,86,0.00,,,0.00,weatherlink.com 1.10,2013-01-04 03:05:00,
2013-01-03 22:20:00,27.3,23.0,30.31,NW,326,0.0,0.0,85,0.00,,,0.00,weatherlink.com 1.10,2013-01-04 03:20:00,
2013-01-03 22:35:00,26.4,24.0,30.32,NW,326,0.0,0.0,89,0.00,,,0.00,weatherlink.com 1.10,2013-01-04 03:35:00,
2013-01-03 22:50:00,27.1,24.0,30.32,NW,326,0.0,0.0,86,0.00,,,0.00,weatherlink.com 1.10,2013-01-04 03:50:00,
2013-01-03 23:05:00,27.0,23.0,30.32,NW,326,0.0,1.0,86,0.00,,,0.00,weatherlink.com 1.10,2013-01-04 04:05:00,
2013-01-03 23:20:00,26.3,23.0,30.32,NW,326,0.0,0.0,87,0.00,,,0.00,weatherlink.com 1.10,2013-01-04 04:20:00,
2013-01-03 23:35:00,25.7,23.0,30.32,NW,326,0.0,0.0,88,0.00,,,0.00,weatherlink.com 1.10,2013-01-04 04:35:00,
2013-01-03 23:50:00,25.3,22.0,30.32,SW,229,0.0,1.0,88,0.00,,,0.00,weatherlink.com 1.10,2013-01-04 04:50:00,